createdAt,value
2023-05-19T00:31:25.666Z,98898.53
2023-05-19T00:34:05.425Z,98907.00
2023-05-19T00:37:18.897Z,98899.28
2023-05-19T00:39:46.148Z,98898.38
2023-05-19T00:42:30.006Z,98898.41
2023-05-19T00:44:59.701Z,98896.66
2023-05-19T00:47:26.530Z,98888.06
2023-05-19T00:49:53.122Z,98889.75
2023-05-19T00:52:19.925Z,98886.34
2023-05-19T00:54:46.764Z,98886.31
2023-05-19T00:57:15.014Z,98882.84
2023-05-19T00:59:44.356Z,98876.81
2023-05-19T01:02:10.977Z,98881.06
2023-05-19T01:04:45.850Z,98880.97
2023-05-19T01:07:12.865Z,98878.38
2023-05-19T01:09:40.829Z,98872.38
2023-05-19T01:12:07.954Z,98874.09
2023-05-19T01:14:34.531Z,98874.03
2023-05-19T01:17:05.572Z,98868.88
2023-05-19T01:19:56.550Z,98872.28
2023-05-19T01:22:45.006Z,98871.34
2023-05-19T01:25:29.854Z,98870.47
2023-05-19T01:28:30.996Z,98868.78
2023-05-19T01:31:00.242Z,98870.59
2023-05-19T01:33:29.973Z,98868.09
2023-05-19T01:35:59.061Z,98866.41
2023-05-19T01:38:28.380Z,98872.47
2023-05-19T01:40:57.537Z,98869.00
2023-05-19T01:43:26.412Z,98872.41
2023-05-19T01:45:53.707Z,98867.28
2023-05-19T01:59:21.524Z,98859.72
2023-05-19T02:01:59.225Z,98857.19
2023-05-19T02:34:05.173Z,98856.22
2023-05-19T02:46:40.072Z,98852.81
2023-05-19T02:49:07.937Z,98843.38
2023-05-19T02:51:34.629Z,98839.06
2023-05-19T02:54:01.225Z,98836.41
2023-05-19T03:03:11.601Z,98830.31
2023-05-19T03:05:38.538Z,98822.56
2023-05-19T03:08:09.682Z,98825.94
2023-05-19T03:10:39.324Z,98831.13
2023-05-19T03:13:06.283Z,98824.25
2023-05-19T03:15:35.466Z,98831.03
2023-05-19T03:18:09.746Z,98831.00
2023-05-19T03:20:43.630Z,98830.13
2023-05-19T03:23:15.645Z,98828.34
2023-05-19T03:26:05.167Z,98834.28
2023-05-19T03:57:52.857Z,98841.28
2023-05-19T04:03:27.866Z,98844.63
2023-05-19T04:05:54.604Z,98847.97
2023-05-19T04:08:31.286Z,98853.00
2023-05-19T04:45:27.651Z,98856.94
2023-05-19T04:48:03.016Z,98850.00
2023-05-19T04:50:40.006Z,98853.28
2023-05-19T04:53:12.392Z,98850.50
2023-05-19T04:55:41.305Z,98846.78
2023-05-19T04:58:12.684Z,98850.84
2023-05-19T05:00:39.558Z,98843.56
2023-05-19T05:03:09.611Z,98850.69
2023-05-19T05:05:38.899Z,98855.16
2023-05-19T05:08:12.571Z,98842.63
2023-05-19T05:10:52.806Z,98853.50
2023-05-19T05:13:46.193Z,98855.09
2023-05-19T05:16:20.147Z,98856.91
2023-05-19T05:18:50.785Z,98849.00
2023-05-19T05:21:19.799Z,98850.56
2023-05-19T05:23:47.966Z,98855.59
2023-05-19T05:34:45.328Z,98842.84
2023-05-19T05:37:19.529Z,98838.47
2023-05-19T05:39:49.251Z,98837.53
2023-05-19T05:42:30.412Z,98838.50
2023-05-19T05:45:02.710Z,98840.94
2023-05-19T05:47:38.423Z,98835.72
2023-05-19T05:50:09.454Z,98835.75
2023-05-19T05:52:55.269Z,98842.59
2023-05-19T05:55:27.147Z,98845.84
2023-05-19T05:58:07.976Z,98843.16
2023-05-19T06:00:40.483Z,98851.53
2023-05-19T06:03:08.731Z,98848.13
2023-05-19T06:05:38.584Z,98851.16
2023-05-19T06:08:06.119Z,98840.63
2023-05-19T06:10:34.885Z,98837.88
2023-05-19T06:13:01.856Z,98847.28
2023-05-19T06:15:28.545Z,98839.34
2023-05-19T06:17:55.125Z,98843.53
2023-05-19T06:20:26.933Z,98841.94
2023-05-19T06:28:43.223Z,98845.44
2023-05-19T06:31:22.896Z,98843.38
2023-05-19T06:33:51.651Z,98844.34
2023-05-19T06:36:24.340Z,98844.91
2023-05-19T06:38:55.072Z,98851.81
2023-05-19T06:41:32.408Z,98847.75
2023-05-19T06:43:58.961Z,98851.78
2023-05-19T06:46:28.266Z,98848.59
2023-05-19T06:48:54.796Z,98853.47
2023-05-19T06:54:06.347Z,98841.91
2023-05-19T06:56:36.682Z,98845.19
2023-05-19T06:59:12.073Z,98848.97
2023-05-19T07:01:41.765Z,98845.50
2023-05-19T07:04:10.061Z,98849.88
2023-05-19T07:06:40.405Z,98838.44
2023-05-19T07:11:53.027Z,98838.09
2023-05-19T07:14:24.056Z,98837.34
2023-05-19T07:16:53.842Z,98834.69
2023-05-19T07:19:20.677Z,98837.44
2023-05-19T07:21:50.737Z,98839.03
2023-05-19T07:24:17.307Z,98823.31
2023-05-19T07:26:44.044Z,98822.78
2023-05-19T07:29:12.933Z,98814.97
2023-05-19T07:31:49.214Z,98828.97
2023-05-19T07:34:18.789Z,98818.41
2023-05-19T07:36:45.389Z,98808.59
2023-05-19T07:39:20.980Z,98810.28
2023-05-19T07:41:52.856Z,98815.97
2023-05-19T07:44:22.948Z,98805.06
2023-05-19T07:46:54.995Z,98806.88
2023-05-19T07:49:45.398Z,98810.78
2023-05-19T07:53:06.517Z,98815.16
2023-05-19T07:58:53.378Z,98810.69
2023-05-19T08:01:45.299Z,98799.09
2023-05-19T08:05:35.151Z,98803.22
2023-05-19T08:07:50.711Z,98799.38
2023-05-19T08:10:20.135Z,98796.47
2023-05-19T08:14:20.459Z,98792.16
2023-05-19T08:19:32.738Z,98798.03
2023-05-19T08:22:15.080Z,98789.50
2023-05-19T08:24:50.777Z,98790.00
2023-05-19T08:27:34.235Z,98791.91
2023-05-19T08:30:50.578Z,98793.69
2023-05-19T08:40:03.005Z,98785.06
2023-05-19T08:42:58.332Z,98780.66
2023-05-19T08:45:28.014Z,98770.41
2023-05-19T08:51:22.966Z,98770.13
2023-05-19T08:54:04.496Z,98765.84
2023-05-19T08:56:51.832Z,98766.47
2023-05-19T08:59:34.993Z,98764.16
2023-05-19T09:02:15.805Z,98759.00
2023-05-19T09:04:55.220Z,98763.72
2023-05-19T09:08:16.350Z,98765.75
2023-05-19T09:10:46.152Z,98754.84
2023-05-19T09:13:28.902Z,98755.47
2023-05-19T09:16:14.422Z,98747.03
2023-05-19T09:19:37.518Z,98754.19
2023-05-19T09:23:08.380Z,98752.72
2023-05-19T09:26:01.110Z,98747.50
2023-05-19T09:29:12.592Z,98746.88
2023-05-19T09:32:08.220Z,98737.41
2023-05-19T09:34:54.680Z,98743.94
2023-05-19T09:46:19.994Z,98736.50
2023-05-19T09:49:09.925Z,98737.88
2023-05-19T09:51:41.952Z,98743.84
2023-05-19T09:54:51.956Z,98737.66
2023-05-19T09:57:33.471Z,98739.59
2023-05-19T10:00:17.830Z,98736.81
2023-05-19T10:02:51.117Z,98730.38
2023-05-19T10:05:22.770Z,98732.13
2023-05-19T10:07:52.378Z,98731.84
2023-05-19T10:10:21.726Z,98732.13
2023-05-19T10:12:49.761Z,98726.56
2023-05-19T10:15:23.511Z,98725.09
2023-05-19T10:17:53.290Z,98722.56
2023-05-19T10:20:22.682Z,98706.00
2023-05-19T10:22:49.168Z,98719.16
2023-05-19T10:25:19.669Z,98708.75
2023-05-19T10:27:53.112Z,98692.50
2023-05-19T10:30:39.743Z,98698.00
2023-05-19T10:33:10.384Z,98700.78
2023-05-19T10:36:17.672Z,98705.16
2023-05-19T10:39:12.396Z,98696.53
2023-05-19T10:42:01.384Z,98684.75
2023-05-19T10:44:47.031Z,98676.84
2023-05-19T10:47:14.025Z,98670.63
2023-05-19T10:49:40.878Z,98667.59
2023-05-19T10:52:21.866Z,98665.81
2023-05-19T10:54:49.115Z,98674.69
2023-05-19T10:57:20.913Z,98677.28
2023-05-19T10:59:49.568Z,98669.19
2023-05-19T11:02:45.326Z,98663.25
2023-05-19T11:05:18.216Z,98668.63
2023-05-19T11:07:56.150Z,98673.81
2023-05-19T11:10:23.950Z,98667.38
2023-05-19T11:15:21.219Z,98667.69
2023-05-19T11:17:49.684Z,98664.63
2023-05-19T11:20:27.434Z,98668.28
2023-05-19T11:23:08.350Z,98665.97
2023-05-19T11:25:45.176Z,98661.19
2023-05-19T11:28:14.630Z,98659.72
2023-05-19T11:30:43.496Z,98657.59
2023-05-19T11:33:10.701Z,98657.78
2023-05-19T11:35:43.750Z,98662.34
2023-05-19T11:38:11.600Z,98646.41
2023-05-19T11:40:38.566Z,98650.78
2023-05-19T11:43:10.950Z,98650.47
2023-05-19T11:45:37.967Z,98650.44
2023-05-19T11:48:05.501Z,98650.94
2023-05-19T11:50:34.701Z,98654.06
2023-05-19T11:53:03.504Z,98643.97
2023-05-19T11:55:30.396Z,98648.38
2023-05-19T11:58:05.070Z,98635.22
2023-05-19T12:00:45.088Z,98641.72
2023-05-19T12:03:12.231Z,98636.81
2023-05-19T12:05:44.908Z,98633.13
2023-05-19T12:08:12.915Z,98623.22
2023-05-19T12:10:40.604Z,98624.44
2023-05-19T12:13:10.662Z,98616.03
2023-05-19T12:15:37.878Z,98613.13
2023-05-19T12:18:04.888Z,98628.22
2023-05-19T12:20:38.069Z,98620.06
2023-05-19T12:23:05.174Z,98615.81
2023-05-19T12:25:32.623Z,98608.56
2023-05-19T12:28:02.996Z,98606.84
2023-05-19T12:30:31.275Z,98603.25
2023-05-19T12:32:58.590Z,98594.94
2023-05-19T12:35:34.925Z,98590.66
2023-05-19T12:38:11.250Z,98596.31
2023-05-19T12:40:49.472Z,98604.63
2023-05-19T12:43:24.034Z,98600.06
2023-05-19T12:45:51.158Z,98594.28
2023-05-19T12:48:18.432Z,98587.00
2023-05-19T12:50:53.681Z,98584.78
2023-05-19T12:53:23.018Z,98591.28
2023-05-19T12:56:02.478Z,98591.19
2023-05-19T12:58:38.896Z,98589.56
2023-05-19T13:01:07.386Z,98584.34
2023-05-19T13:03:52.168Z,98576.25
2023-05-19T13:06:26.094Z,98573.53
2023-05-19T13:08:54.800Z,98574.78
2023-05-19T13:11:26.090Z,98569.53
2023-05-19T13:13:52.983Z,98577.59
2023-05-19T13:16:19.793Z,98577.34
2023-05-19T13:18:49.000Z,98570.66
2023-05-19T13:21:17.750Z,98566.22
2023-05-19T13:23:47.748Z,98550.84
2023-05-19T13:26:14.550Z,98566.69
2023-05-19T13:28:42.061Z,98559.00
2023-05-19T13:31:08.685Z,98559.84
2023-05-19T13:33:35.757Z,98573.16
2023-05-19T13:36:34.441Z,98573.09
2023-05-19T13:42:17.662Z,98558.16
2023-05-19T13:44:49.891Z,98553.25
2023-05-19T13:47:16.805Z,98545.13
2023-05-19T13:49:43.533Z,98541.16
2023-05-19T13:52:13.308Z,98556.56
2023-05-19T13:54:39.944Z,98548.19
2023-05-19T13:57:06.903Z,98556.66
2023-05-19T14:02:02.923Z,98546.28
2023-05-19T14:04:40.500Z,98542.50
2023-05-19T14:07:07.473Z,98540.94
2023-05-19T14:09:34.049Z,98544.50
2023-05-19T14:12:00.865Z,98547.75
2023-05-19T14:14:27.668Z,98547.53
2023-05-19T14:16:56.507Z,98549.16
2023-05-19T14:19:30.523Z,98547.66
2023-05-19T14:22:05.108Z,98556.50
2023-05-19T14:24:34.789Z,98543.81
2023-05-19T14:40:42.211Z,98525.84
2023-05-19T14:43:18.238Z,98531.28
2023-05-19T14:46:25.462Z,98528.59
2023-05-19T14:48:52.481Z,98530.50
2023-05-19T14:51:19.157Z,98530.94
2023-05-19T14:53:45.872Z,98532.81
2023-05-19T14:56:12.665Z,98527.97
2023-05-19T14:58:41.555Z,98529.34
2023-05-19T15:01:08.293Z,98531.13
2023-05-19T15:03:37.069Z,98533.94
2023-05-19T15:06:03.841Z,98531.69
2023-05-19T15:08:30.944Z,98528.31
2023-05-19T15:10:57.616Z,98521.44
2023-05-19T15:13:24.420Z,98520.31
2023-05-19T15:16:08.290Z,98522.25
2023-05-19T15:18:42.024Z,98533.94
2023-05-19T15:21:12.115Z,98533.09
2023-05-19T15:23:39.260Z,98530.22
2023-05-19T15:26:06.066Z,98525.75
2023-05-19T15:28:35.884Z,98529.22
2023-05-19T15:31:05.447Z,98527.28
2023-05-19T15:33:32.159Z,98530.41
2023-05-19T15:36:01.499Z,98529.13
2023-05-19T15:38:30.043Z,98528.66
2023-05-19T15:44:45.128Z,98534.91
2023-05-19T15:47:14.967Z,98535.50
2023-05-19T15:49:41.738Z,98541.34
2023-05-19T15:52:09.723Z,98541.44
2023-05-19T15:54:38.484Z,98533.31
2023-05-19T15:57:08.197Z,98524.47
2023-05-19T15:59:34.835Z,98523.88
2023-05-19T16:02:01.721Z,98522.19
2023-05-19T16:04:28.629Z,98520.34
2023-05-19T16:06:55.286Z,98533.97
2023-05-19T16:09:22.045Z,98524.81
2023-05-19T16:12:01.811Z,98521.75
2023-05-19T16:14:36.881Z,98532.19
2023-05-19T16:17:05.064Z,98530.97
2023-05-19T16:19:33.275Z,98524.97
2023-05-19T16:21:59.814Z,98522.75
2023-05-19T16:24:26.377Z,98509.78
2023-05-19T16:26:53.823Z,98515.97
2023-05-19T16:29:27.033Z,98516.41
2023-05-19T16:32:51.882Z,98523.97
2023-05-19T16:35:31.685Z,98511.06
2023-05-19T16:38:35.841Z,98524.56
2023-05-19T16:44:03.600Z,98508.41
2023-05-19T16:46:33.123Z,98521.88
2023-05-19T16:48:59.702Z,98521.00
2023-05-19T16:51:48.279Z,98517.28
2023-05-19T16:54:38.724Z,98524.63
2023-05-19T16:57:26.488Z,98531.59
2023-05-19T17:02:45.352Z,98524.34
2023-05-19T17:05:11.967Z,98525.75
2023-05-19T17:07:46.413Z,98523.34
2023-05-19T17:10:18.167Z,98515.59
2023-05-19T17:12:46.444Z,98519.03
2023-05-19T17:15:15.931Z,98518.31
2023-05-19T17:17:43.672Z,98519.91
2023-05-19T17:20:19.604Z,98516.44
2023-05-19T17:22:46.223Z,98507.69
2023-05-19T17:25:12.765Z,98508.88
2023-05-19T17:37:29.535Z,98526.03
2023-05-19T17:40:36.340Z,98518.47
2023-05-19T17:43:06.213Z,98511.34
2023-05-19T17:45:35.660Z,98515.69
2023-05-19T17:48:04.723Z,98515.13
2023-05-19T17:50:42.871Z,98516.78
2023-05-19T17:53:15.360Z,98515.28
2023-05-19T17:56:22.648Z,98522.16
2023-05-19T17:59:05.021Z,98527.88
2023-05-19T18:01:39.942Z,98529.75
2023-05-19T18:04:23.355Z,98524.53
2023-05-19T18:07:23.034Z,98520.31
2023-05-19T18:09:59.898Z,98517.34
2023-05-19T18:12:35.882Z,98518.41
2023-05-19T18:15:18.856Z,98526.06
2023-05-19T18:17:57.139Z,98530.16
2023-05-19T18:20:23.736Z,98535.38
2023-05-19T18:23:01.537Z,98527.31
2023-05-19T18:25:28.020Z,98526.84
2023-05-19T18:27:55.921Z,98532.13
2023-05-19T18:30:23.876Z,98527.75
2023-05-19T18:32:53.818Z,98532.44
2023-05-19T18:35:21.512Z,98530.16
2023-05-19T18:37:50.453Z,98525.69
2023-05-19T18:40:19.243Z,98532.13
2023-05-19T18:42:47.971Z,98524.63
2023-05-19T18:45:25.061Z,98530.81
2023-05-19T18:47:51.770Z,98533.97
2023-05-19T18:50:20.535Z,98539.34
2023-05-19T18:52:55.918Z,98537.81
2023-05-19T18:55:25.185Z,98538.78
2023-05-19T18:57:56.959Z,98540.00
2023-05-19T19:00:30.514Z,98545.44
2023-05-19T19:03:15.086Z,98549.56
2023-05-19T19:05:41.741Z,98549.88
2023-05-19T19:08:08.212Z,98550.88
2023-05-19T19:10:38.976Z,98547.88
2023-05-19T19:13:06.008Z,98549.56
2023-05-19T19:15:58.659Z,98559.63
2023-05-19T19:18:53.360Z,98554.78
2023-05-19T19:21:34.032Z,98557.63
2023-05-19T19:24:10.754Z,98569.28
2023-05-19T19:30:32.478Z,98568.75
2023-05-19T19:33:11.388Z,98572.75
2023-05-19T19:35:37.997Z,98567.22
2023-05-19T19:38:11.832Z,98566.59
2023-05-19T19:40:45.773Z,98574.88
2023-05-19T19:43:30.590Z,98575.19
2023-05-19T19:46:11.683Z,98576.25
2023-05-19T19:48:47.202Z,98568.31
2023-05-19T19:51:13.708Z,98574.50
2023-05-19T19:53:50.899Z,98572.03
2023-05-19T19:56:35.781Z,98571.59
2023-05-19T19:59:27.778Z,98570.81
2023-05-19T20:02:07.677Z,98568.50
2023-05-19T20:04:39.730Z,98573.28
2023-05-19T20:07:08.233Z,98581.47
2023-05-19T20:09:34.801Z,98575.56
2023-05-19T20:12:01.374Z,98569.66
2023-05-19T20:14:27.861Z,98575.06
2023-05-19T20:16:54.574Z,98575.09
2023-05-19T20:19:21.719Z,98567.38
2023-05-19T20:21:49.434Z,98582.25
2023-05-19T20:24:35.773Z,98587.66
2023-05-19T20:27:02.303Z,98577.28
2023-05-19T20:29:31.204Z,98576.09
2023-05-19T20:31:57.698Z,98577.13
2023-05-19T20:34:24.233Z,98577.91
2023-05-19T20:36:50.982Z,98572.00
2023-05-19T20:39:19.862Z,98562.72
2023-05-19T20:41:46.471Z,98566.22
2023-05-19T20:44:20.704Z,98566.47
2023-05-19T20:46:49.985Z,98563.94
2023-05-19T20:49:19.852Z,98564.06
2023-05-19T20:51:54.108Z,98558.94
2023-05-19T20:54:20.715Z,98556.59
2023-05-19T20:56:47.515Z,98567.78
2023-05-19T20:59:14.240Z,98567.97
2023-05-19T21:01:43.777Z,98565.50
2023-05-19T21:04:28.171Z,98565.03
2023-05-19T21:07:08.991Z,98565.97
2023-05-19T21:09:38.831Z,98567.78
2023-05-19T21:12:06.408Z,98562.84
2023-05-19T21:14:32.908Z,98568.03
2023-05-19T21:17:11.000Z,98569.13
2023-05-19T21:19:51.852Z,98569.22
2023-05-19T21:25:28.720Z,98559.06
2023-05-19T21:27:56.120Z,98556.47
2023-05-19T21:30:27.414Z,98556.56
2023-05-19T21:33:00.595Z,98558.38
2023-05-19T21:35:35.003Z,98557.59
2023-05-19T21:38:30.028Z,98558.38
2023-05-19T21:43:59.250Z,98550.09
2023-05-19T21:46:32.153Z,98558.09
2023-05-19T21:49:01.679Z,98552.06
2023-05-19T21:51:34.033Z,98555.03
2023-05-19T21:54:05.308Z,98552.75
2023-05-19T21:56:34.419Z,98548.81
2023-05-19T21:59:01.140Z,98548.59
2023-05-19T22:01:30.536Z,98550.19
2023-05-19T22:03:57.123Z,98545.00
2023-05-19T22:06:23.841Z,98549.69
2023-05-19T22:08:52.318Z,98547.81
2023-05-19T22:11:18.958Z,98547.13
2023-05-19T22:13:45.941Z,98552.38
2023-05-19T22:16:21.141Z,98548.06
2023-05-19T22:18:48.130Z,98548.22
2023-05-19T22:21:14.927Z,98538.69
2023-05-19T22:23:43.904Z,98536.00
2023-05-19T22:26:13.124Z,98542.13
2023-05-19T22:28:56.092Z,98539.22
2023-05-19T22:31:22.669Z,98536.56
2023-05-19T22:33:51.616Z,98544.16
2023-05-19T22:36:18.429Z,98537.09
2023-05-19T22:38:45.062Z,98542.09
2023-05-19T22:41:14.235Z,98535.03
2023-05-19T22:46:20.591Z,98526.06
2023-05-19T22:48:47.150Z,98529.44
2023-05-19T22:51:13.715Z,98530.28
2023-05-19T22:53:45.113Z,98523.41
2023-05-19T22:56:11.578Z,98521.59
2023-05-19T22:58:38.145Z,98516.47
2023-05-19T23:01:04.746Z,98523.47
2023-05-19T23:03:31.314Z,98514.56
2023-05-19T23:05:57.776Z,98516.34
2023-05-19T23:08:24.242Z,98522.47
2023-05-19T23:10:51.019Z,98523.22
2023-05-19T23:13:17.609Z,98516.13
2023-05-19T23:15:44.084Z,98514.81
2023-05-19T23:18:11.591Z,98510.66
2023-05-19T23:20:38.231Z,98511.16
2023-05-19T23:23:04.775Z,98506.88
2023-05-19T23:25:32.034Z,98499.97
2023-05-19T23:27:58.831Z,98496.88
2023-05-19T23:30:25.326Z,98499.06
2023-05-19T23:32:52.990Z,98500.91
2023-05-19T23:35:20.575Z,98491.56
2023-05-19T23:37:47.096Z,98493.00
2023-05-19T23:40:14.924Z,98491.91
2023-05-19T23:42:41.592Z,98492.94
2023-05-19T23:45:08.647Z,98491.94
2023-05-19T23:47:35.674Z,98481.63
2023-05-19T23:50:04.613Z,98490.09
2023-05-19T23:52:32.852Z,98488.19
2023-05-19T23:54:59.568Z,98478.69
2023-05-19T23:57:41.353Z,98492.53
